sensor_id;sensor_type;location;lat;lon;timestamp;P1;durP1;ratioP1;P2;durP2;ratioP2
19998;SDS011;10160;50.926;4.374;2023-08-20T00:00:29;16.10;;;3.00;;
19998;SDS011;10160;50.926;4.374;2023-08-20T00:02:59;26.55;;;3.67;;
19998;SDS011;10160;50.926;4.374;2023-08-20T00:05:30;16.17;;;3.25;;
19998;SDS011;10160;50.926;4.374;2023-08-20T00:07:56;22.90;;;3.13;;
19998;SDS011;10160;50.926;4.374;2023-08-20T00:10:22;13.13;;;2.97;;
19998;SDS011;10160;50.926;4.374;2023-08-20T00:12:47;13.65;;;2.60;;
19998;SDS011;10160;50.926;4.374;2023-08-20T00:15:13;14.88;;;2.80;;
19998;SDS011;10160;50.926;4.374;2023-08-20T00:17:39;15.60;;;2.97;;
19998;SDS011;10160;50.926;4.374;2023-08-20T00:20:07;15.55;;;2.95;;
19998;SDS011;10160;50.926;4.374;2023-08-20T00:22:43;16.50;;;3.05;;
19998;SDS011;10160;50.926;4.374;2023-08-20T00:25:12;14.35;;;3.05;;
19998;SDS011;10160;50.926;4.374;2023-08-20T00:27:40;16.65;;;3.42;;
19998;SDS011;10160;50.926;4.374;2023-08-20T00:30:09;15.13;;;2.95;;
19998;SDS011;10160;50.926;4.374;2023-08-20T00:32:36;17.67;;;3.28;;
19998;SDS011;10160;50.926;4.374;2023-08-20T00:35:02;15.15;;;3.25;;
19998;SDS011;10160;50.926;4.374;2023-08-20T00:37:28;12.80;;;3.03;;
19998;SDS011;10160;50.926;4.374;2023-08-20T00:39:54;20.17;;;3.03;;
19998;SDS011;10160;50.926;4.374;2023-08-20T00:42:20;14.15;;;3.17;;
19998;SDS011;10160;50.926;4.374;2023-08-20T00:44:46;16.15;;;2.60;;
19998;SDS011;10160;50.926;4.374;2023-08-20T00:47:15;19.75;;;3.53;;
19998;SDS011;10160;50.926;4.374;2023-08-20T00:49:43;14.63;;;2.92;;
19998;SDS011;10160;50.926;4.374;2023-08-20T00:52:12;13.95;;;2.63;;
19998;SDS011;10160;50.926;4.374;2023-08-20T00:54:47;15.60;;;2.80;;
19998;SDS011;10160;50.926;4.374;2023-08-20T00:57:13;12.88;;;2.47;;
19998;SDS011;10160;50.926;4.374;2023-08-20T00:59:42;13.13;;;3.13;;
19998;SDS011;10160;50.926;4.374;2023-08-20T01:02:09;14.63;;;2.95;;
19998;SDS011;10160;50.926;4.374;2023-08-20T01:04:35;19.75;;;3.00;;
19998;SDS011;10160;50.926;4.374;2023-08-20T01:10:19;15.73;;;2.90;;
19998;SDS011;10160;50.926;4.374;2023-08-20T01:13:04;16.80;;;3.20;;
19998;SDS011;10160;50.926;4.374;2023-08-20T01:15:32;17.00;;;2.70;;
19998;SDS011;10160;50.926;4.374;2023-08-20T01:17:58;16.92;;;2.60;;
19998;SDS011;10160;50.926;4.374;2023-08-20T01:20:27;10.85;;;2.53;;
19998;SDS011;10160;50.926;4.374;2023-08-20T01:25:39;16.10;;;3.05;;
19998;SDS011;10160;50.926;4.374;2023-08-20T01:28:28;11.85;;;2.40;;
19998;SDS011;10160;50.926;4.374;2023-08-20T01:31:09;14.32;;;3.30;;
19998;SDS011;10160;50.926;4.374;2023-08-20T01:33:36;20.27;;;3.35;;
19998;SDS011;10160;50.926;4.374;2023-08-20T01:36:02;16.02;;;2.78;;
19998;SDS011;10160;50.926;4.374;2023-08-20T01:38:34;15.80;;;2.45;;
19998;SDS011;10160;50.926;4.374;2023-08-20T01:41:01;15.10;;;2.85;;
19998;SDS011;10160;50.926;4.374;2023-08-20T01:43:27;14.40;;;2.80;;
19998;SDS011;10160;50.926;4.374;2023-08-20T01:45:53;12.80;;;2.95;;
19998;SDS011;10160;50.926;4.374;2023-08-20T01:48:18;14.50;;;2.85;;
19998;SDS011;10160;50.926;4.374;2023-08-20T01:50:44;13.15;;;2.67;;
19998;SDS011;10160;50.926;4.374;2023-08-20T01:53:11;18.27;;;2.83;;
19998;SDS011;10160;50.926;4.374;2023-08-20T01:55:37;10.05;;;2.50;;
19998;SDS011;10160;50.926;4.374;2023-08-20T01:58:05;13.88;;;3.00;;
19998;SDS011;10160;50.926;4.374;2023-08-20T02:00:31;10.18;;;2.53;;
19998;SDS011;10160;50.926;4.374;2023-08-20T02:03:01;17.92;;;2.38;;
19998;SDS011;10160;50.926;4.374;2023-08-20T02:05:27;15.48;;;2.72;;
19998;SDS011;10160;50.926;4.374;2023-08-20T02:07:53;14.50;;;2.60;;
19998;SDS011;10160;50.926;4.374;2023-08-20T02:10:24;12.82;;;3.25;;
19998;SDS011;10160;50.926;4.374;2023-08-20T02:12:50;15.20;;;2.70;;
19998;SDS011;10160;50.926;4.374;2023-08-20T02:15:15;12.25;;;2.63;;
19998;SDS011;10160;50.926;4.374;2023-08-20T02:17:41;14.20;;;2.45;;
19998;SDS011;10160;50.926;4.374;2023-08-20T02:20:07;12.82;;;2.88;;
19998;SDS011;10160;50.926;4.374;2023-08-20T02:22:35;20.27;;;2.88;;
19998;SDS011;10160;50.926;4.374;2023-08-20T02:25:01;16.25;;;2.95;;
19998;SDS011;10160;50.926;4.374;2023-08-20T02:27:26;12.85;;;2.92;;
19998;SDS011;10160;50.926;4.374;2023-08-20T02:29:52;9.70;;;2.47;;
19998;SDS011;10160;50.926;4.374;2023-08-20T02:32:17;13.07;;;2.67;;
19998;SDS011;10160;50.926;4.374;2023-08-20T02:34:44;21.25;;;2.80;;
19998;SDS011;10160;50.926;4.374;2023-08-20T02:37:09;14.75;;;2.75;;
19998;SDS011;10160;50.926;4.374;2023-08-20T02:39:38;21.75;;;2.80;;
19998;SDS011;10160;50.926;4.374;2023-08-20T02:42:03;15.80;;;3.08;;
19998;SDS011;10160;50.926;4.374;2023-08-20T02:44:29;11.35;;;2.67;;
19998;SDS011;10160;50.926;4.374;2023-08-20T02:46:55;11.90;;;2.42;;
19998;SDS011;10160;50.926;4.374;2023-08-20T02:49:20;12.73;;;2.65;;
19998;SDS011;10160;50.926;4.374;2023-08-20T02:51:46;13.63;;;2.58;;
19998;SDS011;10160;50.926;4.374;2023-08-20T02:54:12;12.48;;;2.58;;
19998;SDS011;10160;50.926;4.374;2023-08-20T02:56:37;12.15;;;2.85;;
19998;SDS011;10160;50.926;4.374;2023-08-20T02:59:03;10.07;;;2.72;;
19998;SDS011;10160;50.926;4.374;2023-08-20T03:01:29;12.43;;;2.78;;
19998;SDS011;10160;50.926;4.374;2023-08-20T03:03:55;15.73;;;2.85;;
19998;SDS011;10160;50.926;4.374;2023-08-20T03:06:21;15.88;;;2.60;;
19998;SDS011;10160;50.926;4.374;2023-08-20T03:08:46;12.00;;;2.35;;
19998;SDS011;10160;50.926;4.374;2023-08-20T03:11:12;15.63;;;2.92;;
19998;SDS011;10160;50.926;4.374;2023-08-20T03:13:38;13.65;;;3.08;;
19998;SDS011;10160;50.926;4.374;2023-08-20T03:16:03;15.65;;;2.47;;
19998;SDS011;10160;50.926;4.374;2023-08-20T03:18:29;15.18;;;2.63;;
19998;SDS011;10160;50.926;4.374;2023-08-20T03:20:58;14.73;;;2.85;;
19998;SDS011;10160;50.926;4.374;2023-08-20T03:23:23;16.08;;;3.35;;
19998;SDS011;10160;50.926;4.374;2023-08-20T03:25:49;13.55;;;3.22;;
19998;SDS011;10160;50.926;4.374;2023-08-20T03:28:15;12.98;;;2.70;;
19998;SDS011;10160;50.926;4.374;2023-08-20T03:30:43;11.73;;;2.92;;
19998;SDS011;10160;50.926;4.374;2023-08-20T03:33:08;11.98;;;2.67;;
19998;SDS011;10160;50.926;4.374;2023-08-20T03:35:34;12.25;;;2.83;;
19998;SDS011;10160;50.926;4.374;2023-08-20T03:38:00;9.13;;;2.78;;
19998;SDS011;10160;50.926;4.374;2023-08-20T03:40:27;10.30;;;2.40;;
19998;SDS011;10160;50.926;4.374;2023-08-20T03:42:55;13.90;;;2.75;;
19998;SDS011;10160;50.926;4.374;2023-08-20T03:45:21;10.32;;;2.50;;
19998;SDS011;10160;50.926;4.374;2023-08-20T03:47:47;15.85;;;3.00;;
19998;SDS011;10160;50.926;4.374;2023-08-20T03:50:12;10.05;;;2.60;;
19998;SDS011;10160;50.926;4.374;2023-08-20T03:52:38;14.45;;;2.75;;
19998;SDS011;10160;50.926;4.374;2023-08-20T03:55:16;10.23;;;2.75;;
19998;SDS011;10160;50.926;4.374;2023-08-20T03:57:41;9.68;;;2.83;;
19998;SDS011;10160;50.926;4.374;2023-08-20T04:00:07;10.95;;;2.72;;
19998;SDS011;10160;50.926;4.374;2023-08-20T04:02:34;14.68;;;3.80;;
19998;SDS011;10160;50.926;4.374;2023-08-20T04:05:00;13.98;;;2.50;;
19998;SDS011;10160;50.926;4.374;2023-08-20T04:07:29;11.88;;;2.50;;
19998;SDS011;10160;50.926;4.374;2023-08-20T04:09:55;14.45;;;2.65;;
19998;SDS011;10160;50.926;4.374;2023-08-20T04:12:20;13.60;;;2.58;;
19998;SDS011;10160;50.926;4.374;2023-08-20T04:14:46;13.57;;;3.00;;
19998;SDS011;10160;50.926;4.374;2023-08-20T04:17:12;8.55;;;2.63;;
19998;SDS011;10160;50.926;4.374;2023-08-20T04:19:37;11.93;;;2.88;;
19998;SDS011;10160;50.926;4.374;2023-08-20T04:22:06;12.13;;;2.45;;
19998;SDS011;10160;50.926;4.374;2023-08-20T04:24:31;15.25;;;2.80;;
19998;SDS011;10160;50.926;4.374;2023-08-20T04:26:57;16.25;;;2.90;;
19998;SDS011;10160;50.926;4.374;2023-08-20T04:29:25;11.43;;;2.90;;
19998;SDS011;10160;50.926;4.374;2023-08-20T04:31:52;11.43;;;2.55;;
19998;SDS011;10160;50.926;4.374;2023-08-20T04:34:21;11.90;;;2.95;;
19998;SDS011;10160;50.926;4.374;2023-08-20T04:36:46;9.07;;;2.33;;
19998;SDS011;10160;50.926;4.374;2023-08-20T04:39:15;12.98;;;2.78;;
19998;SDS011;10160;50.926;4.374;2023-08-20T04:41:41;9.52;;;2.60;;
19998;SDS011;10160;50.926;4.374;2023-08-20T04:44:09;8.40;;;2.28;;
19998;SDS011;10160;50.926;4.374;2023-08-20T04:46:35;9.88;;;2.30;;
19998;SDS011;10160;50.926;4.374;2023-08-20T04:49:00;13.75;;;2.72;;
19998;SDS011;10160;50.926;4.374;2023-08-20T04:51:26;17.48;;;3.17;;
19998;SDS011;10160;50.926;4.374;2023-08-20T04:53:51;10.93;;;2.63;;
19998;SDS011;10160;50.926;4.374;2023-08-20T04:56:20;12.48;;;2.60;;
19998;SDS011;10160;50.926;4.374;2023-08-20T04:58:45;10.55;;;2.67;;
19998;SDS011;10160;50.926;4.374;2023-08-20T05:01:11;14.40;;;2.72;;
19998;SDS011;10160;50.926;4.374;2023-08-20T05:03:39;13.60;;;2.63;;
19998;SDS011;10160;50.926;4.374;2023-08-20T05:06:05;12.05;;;2.20;;
19998;SDS011;10160;50.926;4.374;2023-08-20T05:08:31;11.05;;;2.47;;
19998;SDS011;10160;50.926;4.374;2023-08-20T05:10:56;12.55;;;2.58;;
19998;SDS011;10160;50.926;4.374;2023-08-20T05:13:22;11.18;;;2.63;;
19998;SDS011;10160;50.926;4.374;2023-08-20T05:15:49;14.07;;;2.30;;
19998;SDS011;10160;50.926;4.374;2023-08-20T05:18:16;12.18;;;2.90;;
19998;SDS011;10160;50.926;4.374;2023-08-20T05:20:42;12.75;;;2.45;;
19998;SDS011;10160;50.926;4.374;2023-08-20T05:23:08;11.25;;;2.30;;
19998;SDS011;10160;50.926;4.374;2023-08-20T05:25:33;11.98;;;2.60;;
19998;SDS011;10160;50.926;4.374;2023-08-20T05:27:59;13.57;;;2.45;;
19998;SDS011;10160;50.926;4.374;2023-08-20T05:30:28;14.82;;;2.65;;
19998;SDS011;10160;50.926;4.374;2023-08-20T05:32:54;7.95;;;2.33;;
19998;SDS011;10160;50.926;4.374;2023-08-20T05:35:19;7.65;;;2.53;;
19998;SDS011;10160;50.926;4.374;2023-08-20T05:37:45;13.15;;;2.47;;
19998;SDS011;10160;50.926;4.374;2023-08-20T05:40:11;9.70;;;2.70;;
19998;SDS011;10160;50.926;4.374;2023-08-20T05:42:36;13.57;;;2.67;;
19998;SDS011;10160;50.926;4.374;2023-08-20T05:45:02;19.08;;;3.08;;
19998;SDS011;10160;50.926;4.374;2023-08-20T05:47:28;14.88;;;3.08;;
19998;SDS011;10160;50.926;4.374;2023-08-20T05:49:54;10.18;;;2.38;;
19998;SDS011;10160;50.926;4.374;2023-08-20T05:52:19;11.60;;;2.40;;
19998;SDS011;10160;50.926;4.374;2023-08-20T05:54:45;9.38;;;2.47;;
19998;SDS011;10160;50.926;4.374;2023-08-20T05:57:10;7.72;;;2.72;;
19998;SDS011;10160;50.926;4.374;2023-08-20T05:59:36;8.23;;;2.47;;
19998;SDS011;10160;50.926;4.374;2023-08-20T06:02:02;8.73;;;2.33;;
19998;SDS011;10160;50.926;4.374;2023-08-20T06:04:27;9.85;;;2.40;;
19998;SDS011;10160;50.926;4.374;2023-08-20T06:06:53;9.95;;;2.30;;
19998;SDS011;10160;50.926;4.374;2023-08-20T06:09:21;14.70;;;2.72;;
19998;SDS011;10160;50.926;4.374;2023-08-20T06:11:47;13.20;;;3.00;;
19998;SDS011;10160;50.926;4.374;2023-08-20T06:14:17;11.50;;;2.38;;
19998;SDS011;10160;50.926;4.374;2023-08-20T06:16:43;13.63;;;2.17;;
19998;SDS011;10160;50.926;4.374;2023-08-20T06:19:09;9.05;;;2.47;;
19998;SDS011;10160;50.926;4.374;2023-08-20T06:21:34;8.88;;;2.00;;
19998;SDS011;10160;50.926;4.374;2023-08-20T06:24:00;10.43;;;2.10;;
19998;SDS011;10160;50.926;4.374;2023-08-20T06:26:32;8.00;;;1.90;;
19998;SDS011;10160;50.926;4.374;2023-08-20T06:28:58;17.88;;;2.45;;
19998;SDS011;10160;50.926;4.374;2023-08-20T06:31:24;11.00;;;2.38;;
19998;SDS011;10160;50.926;4.374;2023-08-20T06:33:49;13.55;;;2.85;;
19998;SDS011;10160;50.926;4.374;2023-08-20T06:36:18;11.23;;;2.05;;
19998;SDS011;10160;50.926;4.374;2023-08-20T06:38:46;9.98;;;2.15;;
19998;SDS011;10160;50.926;4.374;2023-08-20T06:41:11;12.38;;;2.40;;
19998;SDS011;10160;50.926;4.374;2023-08-20T06:43:37;12.70;;;2.17;;
19998;SDS011;10160;50.926;4.374;2023-08-20T06:46:03;12.30;;;2.40;;
19998;SDS011;10160;50.926;4.374;2023-08-20T06:48:28;16.90;;;2.25;;
19998;SDS011;10160;50.926;4.374;2023-08-20T06:50:57;8.63;;;2.08;;
19998;SDS011;10160;50.926;4.374;2023-08-20T06:53:23;7.70;;;1.80;;
19998;SDS011;10160;50.926;4.374;2023-08-20T06:55:48;12.40;;;2.35;;
19998;SDS011;10160;50.926;4.374;2023-08-20T06:58:14;9.52;;;2.13;;
19998;SDS011;10160;50.926;4.374;2023-08-20T07:00:46;15.43;;;2.10;;
19998;SDS011;10160;50.926;4.374;2023-08-20T07:03:14;15.05;;;2.30;;
19998;SDS011;10160;50.926;4.374;2023-08-20T07:05:43;8.30;;;1.60;;
19998;SDS011;10160;50.926;4.374;2023-08-20T07:08:08;8.00;;;1.95;;
19998;SDS011;10160;50.926;4.374;2023-08-20T07:10:34;10.15;;;1.67;;
19998;SDS011;10160;50.926;4.374;2023-08-20T07:12:59;8.90;;;1.63;;
19998;SDS011;10160;50.926;4.374;2023-08-20T07:15:25;9.13;;;1.85;;
19998;SDS011;10160;50.926;4.374;2023-08-20T07:17:51;13.70;;;2.08;;
19998;SDS011;10160;50.926;4.374;2023-08-20T07:20:16;11.13;;;2.33;;
19998;SDS011;10160;50.926;4.374;2023-08-20T07:22:47;6.43;;;1.70;;
19998;SDS011;10160;50.926;4.374;2023-08-20T07:25:13;8.43;;;1.42;;
19998;SDS011;10160;50.926;4.374;2023-08-20T07:27:41;9.98;;;1.67;;
19998;SDS011;10160;50.926;4.374;2023-08-20T07:30:08;11.38;;;1.70;;
19998;SDS011;10160;50.926;4.374;2023-08-20T07:32:40;10.10;;;1.80;;
19998;SDS011;10160;50.926;4.374;2023-08-20T07:35:06;7.28;;;1.98;;
19998;SDS011;10160;50.926;4.374;2023-08-20T07:37:32;8.77;;;1.40;;
19998;SDS011;10160;50.926;4.374;2023-08-20T07:39:57;7.05;;;1.23;;
19998;SDS011;10160;50.926;4.374;2023-08-20T07:42:23;8.55;;;1.50;;
19998;SDS011;10160;50.926;4.374;2023-08-20T07:44:49;8.48;;;1.50;;
19998;SDS011;10160;50.926;4.374;2023-08-20T07:47:14;11.27;;;1.60;;
19998;SDS011;10160;50.926;4.374;2023-08-20T07:49:40;13.63;;;2.22;;
19998;SDS011;10160;50.926;4.374;2023-08-20T07:52:05;7.82;;;1.92;;
19998;SDS011;10160;50.926;4.374;2023-08-20T07:54:31;9.32;;;1.58;;
19998;SDS011;10160;50.926;4.374;2023-08-20T07:57:00;8.50;;;1.13;;
19998;SDS011;10160;50.926;4.374;2023-08-20T07:59:25;8.23;;;1.30;;
19998;SDS011;10160;50.926;4.374;2023-08-20T08:01:51;9.75;;;1.77;;
19998;SDS011;10160;50.926;4.374;2023-08-20T08:04:17;11.18;;;1.20;;
19998;SDS011;10160;50.926;4.374;2023-08-20T08:06:42;6.45;;;1.30;;
19998;SDS011;10160;50.926;4.374;2023-08-20T08:09:14;5.72;;;1.20;;
19998;SDS011;10160;50.926;4.374;2023-08-20T08:11:46;5.65;;;1.13;;
19998;SDS011;10160;50.926;4.374;2023-08-20T08:14:12;6.18;;;1.33;;
19998;SDS011;10160;50.926;4.374;2023-08-20T08:16:38;7.07;;;1.20;;
19998;SDS011;10160;50.926;4.374;2023-08-20T08:19:04;7.22;;;1.52;;
19998;SDS011;10160;50.926;4.374;2023-08-20T08:21:30;9.32;;;1.73;;
19998;SDS011;10160;50.926;4.374;2023-08-20T08:23:55;9.43;;;1.20;;
19998;SDS011;10160;50.926;4.374;2023-08-20T08:26:21;6.88;;;1.40;;
19998;SDS011;10160;50.926;4.374;2023-08-20T08:28:50;11.88;;;1.65;;
19998;SDS011;10160;50.926;4.374;2023-08-20T08:31:15;5.35;;;0.90;;
19998;SDS011;10160;50.926;4.374;2023-08-20T08:33:41;7.82;;;1.00;;
19998;SDS011;10160;50.926;4.374;2023-08-20T08:36:06;5.57;;;0.90;;
19998;SDS011;10160;50.926;4.374;2023-08-20T08:38:32;7.15;;;1.45;;
19998;SDS011;10160;50.926;4.374;2023-08-20T08:40:58;9.23;;;1.27;;
19998;SDS011;10160;50.926;4.374;2023-08-20T08:43:29;7.05;;;1.63;;
19998;SDS011;10160;50.926;4.374;2023-08-20T08:45:56;5.95;;;0.90;;
19998;SDS011;10160;50.926;4.374;2023-08-20T08:48:22;7.53;;;1.30;;
19998;SDS011;10160;50.926;4.374;2023-08-20T08:50:50;6.18;;;1.23;;
19998;SDS011;10160;50.926;4.374;2023-08-20T08:53:17;7.70;;;1.17;;
19998;SDS011;10160;50.926;4.374;2023-08-20T08:55:43;6.43;;;1.02;;
19998;SDS011;10160;50.926;4.374;2023-08-20T08:58:09;6.28;;;1.20;;
19998;SDS011;10160;50.926;4.374;2023-08-20T09:00:35;6.35;;;1.30;;
19998;SDS011;10160;50.926;4.374;2023-08-20T09:03:00;7.40;;;1.65;;
19998;SDS011;10160;50.926;4.374;2023-08-20T09:05:26;7.82;;;1.40;;
19998;SDS011;10160;50.926;4.374;2023-08-20T09:07:55;7.28;;;1.20;;
19998;SDS011;10160;50.926;4.374;2023-08-20T09:10:30;4.63;;;1.05;;
19998;SDS011;10160;50.926;4.374;2023-08-20T09:12:59;8.50;;;1.13;;
19998;SDS011;10160;50.926;4.374;2023-08-20T09:15:33;5.75;;;0.80;;
19998;SDS011;10160;50.926;4.374;2023-08-20T09:18:01;3.97;;;0.70;;
19998;SDS011;10160;50.926;4.374;2023-08-20T09:20:37;3.60;;;0.88;;
19998;SDS011;10160;50.926;4.374;2023-08-20T09:23:04;6.50;;;1.13;;
19998;SDS011;10160;50.926;4.374;2023-08-20T09:25:35;7.03;;;1.05;;
19998;SDS011;10160;50.926;4.374;2023-08-20T09:28:04;5.10;;;1.00;;
19998;SDS011;10160;50.926;4.374;2023-08-20T09:30:30;5.50;;;1.30;;
19998;SDS011;10160;50.926;4.374;2023-08-20T09:33:11;4.85;;;1.00;;
19998;SDS011;10160;50.926;4.374;2023-08-20T09:35:49;5.50;;;0.82;;
19998;SDS011;10160;50.926;4.374;2023-08-20T09:38:18;4.85;;;0.95;;
19998;SDS011;10160;50.926;4.374;2023-08-20T09:40:51;7.43;;;1.48;;
19998;SDS011;10160;50.926;4.374;2023-08-20T09:43:18;4.78;;;0.90;;
19998;SDS011;10160;50.926;4.374;2023-08-20T09:45:45;4.03;;;0.52;;
19998;SDS011;10160;50.926;4.374;2023-08-20T09:48:13;5.97;;;0.70;;
19998;SDS011;10160;50.926;4.374;2023-08-20T09:50:43;4.75;;;0.95;;
19998;SDS011;10160;50.926;4.374;2023-08-20T09:56:03;5.50;;;0.77;;
19998;SDS011;10160;50.926;4.374;2023-08-20T09:58:39;11.57;;;0.90;;
19998;SDS011;10160;50.926;4.374;2023-08-20T10:01:06;3.33;;;0.70;;
19998;SDS011;10160;50.926;4.374;2023-08-20T10:03:32;3.75;;;0.55;;
19998;SDS011;10160;50.926;4.374;2023-08-20T10:05:58;3.45;;;0.73;;
19998;SDS011;10160;50.926;4.374;2023-08-20T10:08:26;5.55;;;0.98;;
19998;SDS011;10160;50.926;4.374;2023-08-20T10:10:52;3.70;;;0.73;;
19998;SDS011;10160;50.926;4.374;2023-08-20T10:13:18;4.70;;;0.60;;
19998;SDS011;10160;50.926;4.374;2023-08-20T10:15:44;4.88;;;0.80;;
19998;SDS011;10160;50.926;4.374;2023-08-20T10:18:11;4.53;;;0.77;;
19998;SDS011;10160;50.926;4.374;2023-08-20T10:20:38;5.97;;;1.00;;
19998;SDS011;10160;50.926;4.374;2023-08-20T10:23:07;5.38;;;1.05;;
19998;SDS011;10160;50.926;4.374;2023-08-20T10:25:39;3.75;;;0.95;;
19998;SDS011;10160;50.926;4.374;2023-08-20T10:28:11;4.60;;;0.80;;
19998;SDS011;10160;50.926;4.374;2023-08-20T10:31:05;3.35;;;0.60;;
19998;SDS011;10160;50.926;4.374;2023-08-20T10:36:17;4.70;;;0.80;;
19998;SDS011;10160;50.926;4.374;2023-08-20T10:38:47;4.18;;;0.80;;
19998;SDS011;10160;50.926;4.374;2023-08-20T10:41:15;3.80;;;0.60;;
19998;SDS011;10160;50.926;4.374;2023-08-20T10:43:47;3.20;;;0.60;;
19998;SDS011;10160;50.926;4.374;2023-08-20T10:46:20;5.05;;;0.80;;
19998;SDS011;10160;50.926;4.374;2023-08-20T10:51:18;6.10;;;0.90;;
19998;SDS011;10160;50.926;4.374;2023-08-20T10:54:02;4.63;;;0.88;;
19998;SDS011;10160;50.926;4.374;2023-08-20T10:59:30;7.22;;;0.80;;
19998;SDS011;10160;50.926;4.374;2023-08-20T11:01:56;4.65;;;1.05;;
19998;SDS011;10160;50.926;4.374;2023-08-20T11:04:23;2.80;;;0.70;;
19998;SDS011;10160;50.926;4.374;2023-08-20T11:06:53;5.07;;;1.02;;
19998;SDS011;10160;50.926;4.374;2023-08-20T11:09:21;3.70;;;0.70;;
19998;SDS011;10160;50.926;4.374;2023-08-20T11:11:47;4.88;;;1.02;;
19998;SDS011;10160;50.926;4.374;2023-08-20T11:14:15;3.92;;;0.88;;
19998;SDS011;10160;50.926;4.374;2023-08-20T11:16:45;5.57;;;0.82;;
19998;SDS011;10160;50.926;4.374;2023-08-20T11:19:19;4.95;;;0.80;;
19998;SDS011;10160;50.926;4.374;2023-08-20T11:21:45;6.55;;;1.08;;
19998;SDS011;10160;50.926;4.374;2023-08-20T11:24:12;4.72;;;0.82;;
19998;SDS011;10160;50.926;4.374;2023-08-20T11:26:41;2.70;;;0.60;;
19998;SDS011;10160;50.926;4.374;2023-08-20T11:31:35;5.05;;;0.90;;
19998;SDS011;10160;50.926;4.374;2023-08-20T11:34:02;4.00;;;0.80;;
19998;SDS011;10160;50.926;4.374;2023-08-20T11:36:31;3.35;;;0.70;;
19998;SDS011;10160;50.926;4.374;2023-08-20T11:38:57;3.65;;;0.70;;
19998;SDS011;10160;50.926;4.374;2023-08-20T11:41:23;6.05;;;0.90;;
19998;SDS011;10160;50.926;4.374;2023-08-20T11:43:51;3.58;;;0.80;;
19998;SDS011;10160;50.926;4.374;2023-08-20T11:46:18;4.13;;;0.90;;
19998;SDS011;10160;50.926;4.374;2023-08-20T11:49:05;4.20;;;0.60;;
19998;SDS011;10160;50.926;4.374;2023-08-20T11:51:38;4.53;;;0.70;;
19998;SDS011;10160;50.926;4.374;2023-08-20T11:54:15;5.07;;;0.80;;
19998;SDS011;10160;50.926;4.374;2023-08-20T11:56:49;6.15;;;0.82;;
19998;SDS011;10160;50.926;4.374;2023-08-20T11:59:19;4.05;;;0.63;;
19998;SDS011;10160;50.926;4.374;2023-08-20T12:01:52;5.38;;;0.70;;
19998;SDS011;10160;50.926;4.374;2023-08-20T12:04:23;4.45;;;0.85;;
19998;SDS011;10160;50.926;4.374;2023-08-20T12:07:01;2.10;;;0.60;;
19998;SDS011;10160;50.926;4.374;2023-08-20T12:09:27;4.78;;;0.55;;
19998;SDS011;10160;50.926;4.374;2023-08-20T12:11:54;8.95;;;1.20;;
19998;SDS011;10160;50.926;4.374;2023-08-20T12:14:23;5.75;;;1.00;;
19998;SDS011;10160;50.926;4.374;2023-08-20T12:16:49;5.53;;;0.90;;
19998;SDS011;10160;50.926;4.374;2023-08-20T12:19:16;5.32;;;0.90;;
19998;SDS011;10160;50.926;4.374;2023-08-20T12:21:42;2.95;;;0.82;;
19998;SDS011;10160;50.926;4.374;2023-08-20T12:24:11;5.90;;;1.10;;
19998;SDS011;10160;50.926;4.374;2023-08-20T12:26:37;5.35;;;0.93;;
19998;SDS011;10160;50.926;4.374;2023-08-20T12:29:06;6.07;;;0.95;;
19998;SDS011;10160;50.926;4.374;2023-08-20T12:31:32;3.35;;;0.93;;
19998;SDS011;10160;50.926;4.374;2023-08-20T12:33:59;4.82;;;0.80;;
19998;SDS011;10160;50.926;4.374;2023-08-20T12:36:25;5.30;;;0.80;;
19998;SDS011;10160;50.926;4.374;2023-08-20T12:38:51;5.30;;;0.80;;
19998;SDS011;10160;50.926;4.374;2023-08-20T12:41:16;3.75;;;0.50;;
19998;SDS011;10160;50.926;4.374;2023-08-20T12:43:43;3.90;;;0.88;;
19998;SDS011;10160;50.926;4.374;2023-08-20T12:46:08;8.27;;;1.50;;
19998;SDS011;10160;50.926;4.374;2023-08-20T12:48:34;7.07;;;0.90;;
19998;SDS011;10160;50.926;4.374;2023-08-20T12:51:00;5.18;;;1.15;;
19998;SDS011;10160;50.926;4.374;2023-08-20T12:53:25;6.38;;;1.17;;
19998;SDS011;10160;50.926;4.374;2023-08-20T12:55:54;6.13;;;1.25;;
19998;SDS011;10160;50.926;4.374;2023-08-20T12:58:20;8.27;;;1.20;;
19998;SDS011;10160;50.926;4.374;2023-08-20T13:00:45;5.18;;;1.20;;
19998;SDS011;10160;50.926;4.374;2023-08-20T13:03:11;6.05;;;1.67;;
19998;SDS011;10160;50.926;4.374;2023-08-20T13:05:38;7.20;;;1.10;;
19998;SDS011;10160;50.926;4.374;2023-08-20T13:08:04;7.43;;;1.13;;
19998;SDS011;10160;50.926;4.374;2023-08-20T13:10:31;5.55;;;1.05;;
19998;SDS011;10160;50.926;4.374;2023-08-20T13:12:58;5.10;;;1.33;;
19998;SDS011;10160;50.926;4.374;2023-08-20T13:15:29;5.72;;;1.08;;
19998;SDS011;10160;50.926;4.374;2023-08-20T13:17:55;7.07;;;1.20;;
19998;SDS011;10160;50.926;4.374;2023-08-20T13:20:24;4.43;;;1.10;;
19998;SDS011;10160;50.926;4.374;2023-08-20T13:22:50;10.10;;;1.42;;
19998;SDS011;10160;50.926;4.374;2023-08-20T13:25:17;5.25;;;1.08;;
19998;SDS011;10160;50.926;4.374;2023-08-20T13:27:43;6.38;;;1.08;;
19998;SDS011;10160;50.926;4.374;2023-08-20T13:30:09;6.45;;;1.08;;
19998;SDS011;10160;50.926;4.374;2023-08-20T13:32:35;5.90;;;1.70;;
19998;SDS011;10160;50.926;4.374;2023-08-20T13:35:02;7.85;;;2.15;;
19998;SDS011;10160;50.926;4.374;2023-08-20T13:37:30;6.95;;;1.45;;
19998;SDS011;10160;50.926;4.374;2023-08-20T13:39:57;7.45;;;1.08;;
19998;SDS011;10160;50.926;4.374;2023-08-20T13:42:23;7.10;;;1.35;;
19998;SDS011;10160;50.926;4.374;2023-08-20T13:44:49;4.78;;;0.95;;
19998;SDS011;10160;50.926;4.374;2023-08-20T13:47:14;6.75;;;1.20;;
19998;SDS011;10160;50.926;4.374;2023-08-20T13:49:43;4.45;;;1.40;;
19998;SDS011;10160;50.926;4.374;2023-08-20T13:52:09;6.15;;;1.45;;
19998;SDS011;10160;50.926;4.374;2023-08-20T13:54:35;4.38;;;0.85;;
19998;SDS011;10160;50.926;4.374;2023-08-20T13:57:01;7.63;;;1.00;;
19998;SDS011;10160;50.926;4.374;2023-08-20T13:59:28;6.72;;;1.00;;
19998;SDS011;10160;50.926;4.374;2023-08-20T14:01:54;3.25;;;1.00;;
19998;SDS011;10160;50.926;4.374;2023-08-20T14:04:23;7.32;;;1.08;;
19998;SDS011;10160;50.926;4.374;2023-08-20T14:06:49;4.25;;;0.80;;
19998;SDS011;10160;50.926;4.374;2023-08-20T14:09:24;5.75;;;0.85;;
19998;SDS011;10160;50.926;4.374;2023-08-20T14:11:50;4.30;;;1.00;;
19998;SDS011;10160;50.926;4.374;2023-08-20T14:14:16;7.28;;;1.20;;
19998;SDS011;10160;50.926;4.374;2023-08-20T14:16:42;5.30;;;0.82;;
19998;SDS011;10160;50.926;4.374;2023-08-20T14:19:08;7.50;;;1.20;;
19998;SDS011;10160;50.926;4.374;2023-08-20T14:21:34;6.35;;;1.00;;
19998;SDS011;10160;50.926;4.374;2023-08-20T14:24:00;6.90;;;1.42;;
19998;SDS011;10160;50.926;4.374;2023-08-20T14:26:25;5.63;;;0.85;;
19998;SDS011;10160;50.926;4.374;2023-08-20T14:28:51;6.43;;;1.13;;
19998;SDS011;10160;50.926;4.374;2023-08-20T14:31:17;7.50;;;1.30;;
19998;SDS011;10160;50.926;4.374;2023-08-20T14:33:44;7.78;;;1.20;;
19998;SDS011;10160;50.926;4.374;2023-08-20T14:36:10;7.72;;;0.95;;
19998;SDS011;10160;50.926;4.374;2023-08-20T14:38:35;6.75;;;1.05;;
19998;SDS011;10160;50.926;4.374;2023-08-20T14:41:01;4.07;;;1.02;;
19998;SDS011;10160;50.926;4.374;2023-08-20T14:43:28;7.95;;;1.05;;
19998;SDS011;10160;50.926;4.374;2023-08-20T14:45:54;5.93;;;1.00;;
19998;SDS011;10160;50.926;4.374;2023-08-20T14:48:20;6.03;;;1.00;;
19998;SDS011;10160;50.926;4.374;2023-08-20T14:50:47;7.82;;;1.27;;
19998;SDS011;10160;50.926;4.374;2023-08-20T14:53:13;7.18;;;1.08;;
19998;SDS011;10160;50.926;4.374;2023-08-20T14:55:39;6.07;;;1.50;;
19998;SDS011;10160;50.926;4.374;2023-08-20T14:58:05;4.40;;;1.10;;
19998;SDS011;10160;50.926;4.374;2023-08-20T15:00:32;6.05;;;1.27;;